createdAt,value
2018-09-27T13:32:13.701Z,20.50
2018-09-27T13:32:47.296Z,20.70
2018-09-27T13:33:20.960Z,20.70
2018-09-27T13:33:57.468Z,20.70
2018-09-27T13:34:33.710Z,20.50
2018-09-27T13:35:09.449Z,20.60
2018-09-27T13:35:43.921Z,20.60
2018-09-27T13:36:20.634Z,20.50
2018-09-27T13:36:51.915Z,20.60
2018-09-27T13:37:25.569Z,20.70
2018-09-27T13:37:59.049Z,20.70
2018-09-27T13:38:35.302Z,20.80
2018-09-27T13:39:11.648Z,20.90
2018-09-27T13:39:45.998Z,20.90
2018-09-27T13:40:19.005Z,20.80
2018-09-27T13:40:53.010Z,20.70
2018-09-27T13:41:26.786Z,20.50
2018-09-27T13:42:01.773Z,20.40
2018-09-27T13:42:35.816Z,20.40
2018-09-27T13:43:09.200Z,20.40
2018-09-27T13:43:44.001Z,20.40
2018-09-27T13:44:18.389Z,20.50
2018-09-27T13:44:52.349Z,20.50
2018-09-27T13:45:25.868Z,20.40
2018-09-27T13:45:59.328Z,20.40
2018-09-27T13:46:35.662Z,20.30
2018-09-27T13:47:09.878Z,20.20
2018-09-27T13:47:44.035Z,20.20
2018-09-27T13:48:18.352Z,20.20
2018-09-27T13:48:52.178Z,20.10
2018-09-27T13:49:26.488Z,20.20
2018-09-27T13:50:00.041Z,20.10
2018-09-27T13:50:34.557Z,20.10
2018-09-27T13:51:08.840Z,20.20
2018-09-27T13:51:43.105Z,20.40
2018-09-27T13:52:16.931Z,20.40
2018-09-27T13:52:52.240Z,20.40
2018-09-27T13:53:25.980Z,20.30
2018-09-27T13:53:59.804Z,20.20
2018-09-27T13:54:33.745Z,20.20
2018-09-27T13:55:15.315Z,20.20
2018-09-27T13:55:51.133Z,20.20
2018-09-27T13:56:27.314Z,20.00
2018-09-27T13:57:00.669Z,20.00
2018-09-27T13:57:36.538Z,20.00
2018-09-27T13:58:10.805Z,19.90
2018-09-27T13:58:44.818Z,20.10
2018-09-27T13:59:26.450Z,20.20
2018-09-27T14:00:01.517Z,20.30
2018-09-27T14:00:37.726Z,20.30
2018-09-27T14:01:11.318Z,20.40
2018-09-27T14:01:47.930Z,20.40
2018-09-27T14:02:21.989Z,20.20
2018-09-27T14:02:56.337Z,19.90
2018-09-27T14:03:30.379Z,19.80
2018-09-27T14:04:04.125Z,19.70
2018-09-27T14:04:38.475Z,19.70
2018-09-27T14:05:12.515Z,19.70
2018-09-27T14:05:47.229Z,19.70
2018-09-27T14:06:20.665Z,19.60
2018-09-27T14:06:55.243Z,19.50
2018-09-27T14:07:28.835Z,19.70
2018-09-27T14:08:03.470Z,19.90
2018-09-27T14:08:37.288Z,19.90
2018-09-27T14:09:11.579Z,19.90
2018-09-27T14:09:45.814Z,19.80
2018-09-27T14:10:20.156Z,19.80
2018-09-27T14:10:54.004Z,20.00
2018-09-27T14:11:27.851Z,20.10
2018-09-27T14:12:01.530Z,20.40
2018-09-27T14:12:35.525Z,20.40
2018-09-27T14:13:11.941Z,20.40
2018-09-27T14:13:46.007Z,20.30
2018-09-27T14:14:20.102Z,20.40
2018-09-27T14:14:54.290Z,20.40
2018-09-27T14:15:28.209Z,20.30
2018-09-27T14:16:02.558Z,20.20
2018-09-27T14:16:36.828Z,20.00
2018-09-27T14:17:10.985Z,19.90
2018-09-27T14:17:45.326Z,19.90
2018-09-27T14:18:18.877Z,19.90
2018-09-27T14:18:53.396Z,20.00
2018-09-27T14:19:26.885Z,20.00
2018-09-27T14:20:01.358Z,20.00
2018-09-27T14:20:37.872Z,19.90
2018-09-27T14:21:12.128Z,19.90
2018-09-27T14:21:45.289Z,19.90
2018-09-27T14:22:21.138Z,19.80
2018-09-27T14:22:55.686Z,19.70
2018-09-27T14:23:29.818Z,19.90
2018-09-27T14:24:04.315Z,20.00
2018-09-27T14:24:37.840Z,20.10
2018-09-27T14:25:12.394Z,20.10
2018-09-27T14:25:46.431Z,20.00
2018-09-27T14:26:19.869Z,19.90
2018-09-27T14:26:53.339Z,19.80
2018-09-27T14:27:26.825Z,19.80
2018-09-27T14:28:03.210Z,19.90
2018-09-27T14:28:34.457Z,19.80
2018-09-27T14:29:07.887Z,20.00
2018-09-27T14:29:44.181Z,20.00
2018-09-27T14:30:18.485Z,19.90
2018-09-27T14:30:50.104Z,20.00
2018-09-27T14:31:24.258Z,20.00
2018-09-27T14:31:59.008Z,20.00
2018-09-27T14:32:33.115Z,19.90
2018-09-27T14:33:07.215Z,19.80
2018-09-27T14:33:41.446Z,19.90
2018-09-27T14:34:15.010Z,19.90
2018-09-27T14:34:49.698Z,20.00
2018-09-27T14:35:23.857Z,20.00
2018-09-27T14:35:58.709Z,19.80
2018-09-27T14:36:33.212Z,19.70
2018-09-27T14:37:07.566Z,19.60
2018-09-27T14:37:41.530Z,19.60
2018-09-27T14:38:16.002Z,19.50
2018-09-27T14:38:49.531Z,19.40
2018-09-27T14:39:23.279Z,19.30
2018-09-27T14:39:58.845Z,19.10
2018-09-27T14:40:33.403Z,19.00
2018-09-27T14:41:07.384Z,19.00
2018-09-27T14:41:41.732Z,19.00
2018-09-27T14:42:15.977Z,18.90
2018-09-27T14:42:49.516Z,18.90
2018-09-27T14:43:24.288Z,18.90
2018-09-27T14:43:57.651Z,18.90
2018-09-27T14:44:33.578Z,19.10
2018-09-27T14:45:07.779Z,19.10
2018-09-27T14:45:42.165Z,19.00
2018-09-27T14:46:13.459Z,19.00
2018-09-27T14:46:47.313Z,18.90
2018-09-27T14:47:21.083Z,18.90
2018-09-27T14:47:55.623Z,19.00
2018-09-27T14:48:29.345Z,19.10
2018-09-27T14:49:05.609Z,19.20
2018-09-27T14:49:39.856Z,19.20
2018-09-27T14:50:14.238Z,19.20
2018-09-27T14:50:47.544Z,19.00
2018-09-27T14:51:22.620Z,18.90
2018-09-27T14:51:56.750Z,18.80
2018-09-27T14:52:30.726Z,18.90
2018-09-27T14:53:04.885Z,19.30
2018-09-27T14:53:38.982Z,19.30
2018-09-27T14:54:13.397Z,19.20
2018-09-27T14:54:47.470Z,19.20
2018-09-27T14:55:21.502Z,19.00
2018-09-27T14:55:55.574Z,19.00
2018-09-27T14:56:29.921Z,18.90
2018-09-27T14:57:04.107Z,18.80
2018-09-27T14:57:37.944Z,18.60
2018-09-27T14:58:14.354Z,18.70
2018-09-27T14:58:48.612Z,18.80
2018-09-27T14:59:22.528Z,18.90
2018-09-27T14:59:56.969Z,19.00
2018-09-27T15:00:31.103Z,19.10
2018-09-27T15:01:04.504Z,19.30
2018-09-27T15:01:39.442Z,19.30
2018-09-27T15:02:13.664Z,19.10
2018-09-27T15:02:47.783Z,19.00
2018-09-27T15:03:22.068Z,19.00
2018-09-27T15:03:56.036Z,18.90
2018-09-27T15:04:30.397Z,19.00
2018-09-27T15:05:03.950Z,19.00
2018-09-27T15:05:38.637Z,19.00
2018-09-27T15:06:12.896Z,19.00
2018-09-27T15:06:46.690Z,19.00
2018-09-27T15:07:20.882Z,18.80
2018-09-27T15:07:54.197Z,18.70
2018-09-27T15:08:29.894Z,18.60
2018-09-27T15:09:04.284Z,18.60
2018-09-27T15:09:38.380Z,18.50
2018-09-27T15:10:12.513Z,18.40
2018-09-27T15:10:46.158Z,18.30
2018-09-27T15:11:20.833Z,18.60
2018-09-27T15:11:54.945Z,18.80
2018-09-27T15:12:29.449Z,18.80
2018-09-27T15:13:03.462Z,18.90
2018-09-27T15:13:38.446Z,18.90
2018-09-27T15:14:13.035Z,18.90
2018-09-27T15:14:47.871Z,18.80
2018-09-27T15:15:24.171Z,18.90
2018-09-27T15:15:57.704Z,18.90
2018-09-27T15:16:32.654Z,18.80
2018-09-27T15:17:08.418Z,18.70
2018-09-27T15:17:42.747Z,18.50
2018-09-27T15:18:16.806Z,18.30
2018-09-27T15:18:51.185Z,18.20
2018-09-27T15:19:24.371Z,18.20
2018-09-27T15:19:59.336Z,18.20
2018-09-27T15:20:33.230Z,18.20
2018-09-27T15:21:07.590Z,18.20
2018-09-27T15:21:41.516Z,18.20
2018-09-27T15:22:16.232Z,18.20
2018-09-27T15:22:49.880Z,18.40
2018-09-27T15:23:24.165Z,18.70
2018-09-27T15:23:58.242Z,18.60
2018-09-27T15:24:32.658Z,18.50
2018-09-27T15:25:06.824Z,18.60
2018-09-27T15:25:40.935Z,18.80
2018-09-27T15:26:14.592Z,18.80
2018-09-27T15:26:51.103Z,18.70
2018-09-27T15:27:24.856Z,18.60
2018-09-27T15:28:45.607Z,18.60
2018-09-27T15:29:20.104Z,18.70
2018-09-27T15:29:53.584Z,18.50
2018-09-27T15:30:28.586Z,18.40
2018-09-27T15:31:02.919Z,18.30
2018-09-27T15:31:37.818Z,18.30
2018-09-27T15:32:12.086Z,18.20
2018-09-27T15:32:45.851Z,18.10
2018-09-27T15:33:20.221Z,18.00
2018-09-27T15:33:54.406Z,18.00
2018-09-27T15:34:28.289Z,18.00
2018-09-27T15:35:03.097Z,17.90
2018-09-27T15:35:36.998Z,17.90
2018-09-27T15:36:11.312Z,17.90
2018-09-27T15:36:45.433Z,17.90
2018-09-27T15:37:19.595Z,17.90
2018-09-27T15:37:53.816Z,17.90
2018-09-27T15:38:28.023Z,17.90
2018-09-27T15:39:01.344Z,17.90
2018-09-27T15:39:37.159Z,17.80
2018-09-27T15:40:10.869Z,17.60
2018-09-27T15:40:45.030Z,17.60
2018-09-27T15:41:18.977Z,17.50
2018-09-27T15:41:52.377Z,17.50
